Main page
METAR-TAF:

METAR-TAF

Airports :

Helsinki Airport

Helsinki, Finland

latitude: 60-19N, longitude: 024-58E, elevation: 51 m

Current weather observation

The report was made 25 minutes ago, at 16:20 UTC
Wind 5 kt from the Northwest
Temperature 1°C
Humidity 80%
Pressure 1030 hPa
Visibility 10 km or more
Broken clouds at a height of 1700 ft

METAR: EFHK 201620Z 31005KT 9999 BKN017 01/M02 Q1030 NOSIG

Time: 18:45 (16:45 UTC)

Forecast

The report was made 2 hours and 7 minutes ago, at 14:38 UTC
Forecast valid from 20 at 15 UTC to 21 at 15 UTC
Wind 9 kt from the Northwest
Visibility 10 km or more
Broken clouds at a height of 1500 ft
Temporary
from 20 at 15 UTC to 20 at 22 UTC
Broken clouds at a height of 1200 ft
Probability 30% :
Temporary
from 20 at 18 UTC to 20 at 22 UTC
Visibility: 5000 m
Broken clouds at a height of 800 ft

TAF: EFHK 201438Z 2015/2115 32009KT 9999 BKN015 TEMPO 2015/2022 BKN012 PROB30 TEMPO 2018/2022 5000 BKN008

Weather observations and forecasts of more than 4000 airports (METAR and TAF reports).

The available stations are represented by yellow and red dots on the map.

Hover mouse over dot to see the name of the station.

Then click to see weather observations and forecasts.

To change the map : click on the green buttons with a black cross to zoom in, on the green button with a dash to zoom out, or on the green arrows for adjacent maps.


METAR-TAF: